Extreme weather reports worldwide

Atmospheric pressure

Low pressure

Station
 
Location
 
Name
 
Wind
Knots
Gust
Knots
Vis
SM
Temp/Dew
C
Baro
inHg
METAR
 
NZSP AQ South Pole Station Airport 18 26 0.99 -52/ 27.98 NZSP 211750Z 01018G26KT 1600 BLSN FEW000 FEW100 M52/ A2798 RMK PK WND 02026/50 BLSN FEW000 CLN AIR 03012KT ALL WNDS GRID SDG/HDP
ILY EGPI Port Ellen, GB Islay Airport 4 6.21 12/11 29.20 EGPI 211750Z AUTO 34004KT 310V010 9999 FEW011/// SCT015/// BKN035/// 12/11 Q0989
EHFD 6.21 14/13 29.23 EHFD 211825Z AUTO /////KT 9999 -RA FEW002/// SCT003/// BKN006/// 14/13 Q0990 RERA REDZ
EHAK 10 6.21 13/13 29.26 EHAK 211825Z AUTO 01010KT 340V060 9999 DZ BKN000/// OVC001/// 13/13 Q0991
ADX EGQL St. Andrews, GB RAF Leuchars 3 3.11 12/12 29.26 EGQL 211750Z 02003KT 5000 BR FEW005 BKN034 BKN050 12/12 Q0991 WHT

Station
 
Location
 
Name
 
Wind
Knots
Gust
Knots
Vis
SM
Temp/Dew
C
Baro
inHg
METAR
 
ENWV 9 12/12 29.29 ENWV 211820Z AUTO 31009KT 7000NDV -RA FEW007/// 12/12 Q0992 W///S4
ENLE 7 6.21 13/12 29.29 ENLE 211820Z 29007KT 9999 -RA FEW002 BKN060 13/12 Q0992 W12/S4
DND EGPN Dundee, GB Dundee Airport 2 6.21 13/12 29.29 EGPN 211820Z 08002KT 9999 VCSH FEW020 SCT030 13/12 Q0992
PIK EGPK Glasgow, GB Glasgow Prestwick Airport 9 6.21 11/10 29.29 EGPK 211820Z 19009KT 9999 SCT012 BKN018 11/10 Q0992
EDI EGPH Edinburgh, GB Edinburgh Airport 6 6.21 13/10 29.29 EGPH 211820Z 24006KT 210V300 9999 BKN014 OVC028 13/10 Q0992
GLA EGPF Glasgow, GB Glasgow International Airport 7 6.21 12/10 29.29 EGPF 211820Z AUTO 16007KT 130V200 9999 BKN013 OVC022 12/10 Q0992
LMO EGQS Lossiemouth, GB RAF Lossiemouth 10 2.17 12/11 29.29 EGQS 211750Z 03010KT 3500 -RADZ SCT003 BKN013 BKN031 12/11 Q0992 NOSIG RMK YLO2 YLO2
EGQM 5 6.21 12/10 29.29 EGQM 211750Z AUTO 24005KT 9999 FEW032/// SCT042/// 12/10 Q0992
TRE EGPU Balemartine, GB Tiree Airport 31 1.43 10/9 29.29 EGPU 211750Z AUTO 02031KT 2300 -RA BKN008/// BKN015/// 10/09 Q0992
EGOM Spadeadam, GB RAF Spadeadam 6 1.3 10/10 29.29 EGOM 211750Z AUTO 23006KT 2100 RA BKN008/// 10/10 Q0992
EHDV 25 6.21 13/13 29.32 EHDV 211825Z AUTO 27025KT 240V320 9999 -RADZ SCT003/// BKN004/// BKN020/// 13/13 Q0993
ENSL NO Sleipner A Platform 9 12/11 29.32 ENSL 211820Z AUTO 04009KT 0800NDV FG NCD 12/11 Q0993 W09/S4
HAU ENHD Karmøy, NO Haugesund Airport 10 6.21 11/10 29.32 ENHD 211820Z 10010KT 9999 -RA FEW007 SCT020 BKN045 11/10 Q0993
EBJ EKEB Esbjerg, DK Esbjerg Airport 12 23 6.21 13/12 29.32 EKEB 211820Z AUTO 15012G23KT 9999 -RA BKN005/// 13/12 Q0993 RERA
INV EGPE Inverness, GB Inverness Airport 13 6.21 11/11 29.32 EGPE 211820Z 02013KT 9999 FEW003 SCT006 BKN015 11/11 Q0993
ABZ EGPD Aberdeen, GB Aberdeen Dyce Airport 2 2.8 11/11 29.32 EGPD 211820Z VRB02KT 4500 BR OVC002 11/11 Q0993 TEMPO 2000
FSS EGQK Kinloss, GB RAF Kinloss 7 3.11 11/11 29.32 EGQK 211750Z AUTO 04007KT 5000 DZ FEW004/// BKN028/// 11/11 Q0993
NCL EGNT Newcastle, GB Newcastle Airport 1 6.21 11/9 29.32 EGNT 211750Z 23001KT 9999 FEW026 11/09 Q0993
SRP ENSO Leirvik, NO Stord Airport 10 6.21 11/10 29.32 ENSO 211720Z 11010KT 9999 -RA FEW010 SCT030 BKN080 11/10 Q0993
EHJA 30 13/12 29.35 EHJA 211825Z AUTO 26030KT //// // SCT002/// BKN003/// BKN006/// 13/12 Q0994 RE//
KRP EKKA Karup, DK Karup Airport 7 3.11 12/11 29.35 EKKA 211822Z AUTO 15007KT 5000 -RA OVC006/// 12/11 Q0994
SVG ENZV Stavanger, NO Stavanger Airport Sola 4 3.73 13/12 29.35 ENZV 211820Z 14004KT 6000 -RA SCT006 BKN015 13/12 Q0994 TEMPO 3000 SHRA BR BKN004
ENHM 13 11/10 29.35 ENHM 211820Z AUTO 03013KT 9999NDV FEW007/// SCT011/// BKN019/// 11/10 Q0994 W12/S4
BGO ENBR Bergen, NO Bergen Airport Flesland 4 6.21 10/9 29.35 ENBR 211820Z 02004KT 340V040 9999 -SHRA FEW005 SCT015CB BKN020 10/09 Q0994 TEMPO 4000 SHRA BR BKN008 RMK WIND 1200FT 09003KT
BLL EKBI Billund, DK Billund Airport 8 2.8 12/12 29.35 EKBI 211820Z 16008KT 130V190 4500 -RA OVC005 12/12 Q0994
WIC EGPC Wick, GB Wick Airport 22 3.73 10/10 29.35 EGPC 211820Z AUTO 04022KT 6000 -RA OVC005/// 10/10 Q0994
MME EGNV Durham, GB Durham Tees Valley Airport 10 6.21 12/8 29.35 EGNV 211820Z 22010KT 9999 SCT023 12/08 Q0994
GWT EDXW Westerland, DE Westerland Sylt Airport 22 3.73 13/12 29.35 EDXW 211820Z 20022KT 6000 RA FEW017 BKN024 OVC032 13/12 Q0994
EGXE Leeming, GB RAF Leeming Air Base 5 6.21 13/9 29.35 EGXE 211750Z AUTO 14005KT 9999 BKN026/// 13/09 Q0994
EHVL Vlieland, NL Vlieland Heliport 36 1.74 15/14 29.38 EHVL 211825Z AUTO 22036KT 2800 RA SCT006 BKN008 BKN009 FEW015CB 15/14 Q0995 RERA REDZ YLO
EHMG 36 4.97 15/13 29.38 EHMG 211825Z AUTO 24036KT 8000 SCT008 BKN009 FEW015CB OVC016 15/13 Q0995
EHHW Gemini Wind Farm, NL Buitengaats / BG-OHVS2 Helipad 40 6.21 15/14 29.38 EHHW 211825Z AUTO 23040KT 9999 FEW005/// SCT007/// BKN008/// 15/14 Q0995
SKS EKSP Vojens, DK Skrydstrup Air Base 13 4.35 13/12 29.38 EKSP 211824Z 18013KT 7000 -RA FEW005 BKN032 13/12 Q0995
SOG ENSG Sogndal, NO Sogndal Airport 4 4.97 2/2 29.38 ENSG 211820Z 07004KT 8000 -RADZ VCFG FEW/// BKN035 02/02 Q0995 RMK WIND 3806FT 15007KT
ENQC NO Troll C Platform 18 11/7 29.38 ENQC 211820Z AUTO 01018KT 9999NDV OVC011/// 11/07 Q0995 W///S4
ENQA NO Troll A Platform 20 10/9 29.38 ENQA 211820Z AUTO 03020KT 9999NDV OVC007/// 10/09 Q0995 W12/S4
ENOA NO Oseberg A Platform 23 6.21 9/8 29.38 ENOA 211820Z 04023KT 9999 BKN010 09/08 Q0995 W///S4
FRO ENFL Florø, NO Florø Airport 0 6.21 8/7 29.38 ENFL 211820Z 00000KT 9999 FEW010 SCT023 BKN040 08/07 Q0995
KRS ENCN Kjevik, NO Kristiansand Airport 5 3.11 13/12 29.38 ENCN 211820Z 15005KT 5000 DZ BR OVC005 13/12 Q0995
AAL EKYT Aalborg, DK Aalborg Airport 7 4.97 12/12 29.38 EKYT 211820Z AUTO 13007KT 8000 RA FEW004/// SCT008/// BKN011/// BKN030/// 12/12 Q0995
EKVD Kolding / Vamdrup, DK Kolding Vamdrup Airfield 13 13/13 29.38 EKVD 211820Z AUTO 18013KT //// ///////// 13/13 Q0995
IOM EGNS Castletown, IM Isle of Man Airport 13 6.21 11/7 29.38 EGNS 211820Z 29013KT CAVOK 11/07 Q0995 NOSIG
BHD EGAC Belfast, GB George Best Belfast City Airport 14 24 5.59 9/7 29.38 EGAC 211820Z AUTO 25014G24KT 9000 -RA SCT013/// BKN018/// OVC022/// 09/07 Q0995
BFS EGAA Belfast, GB Belfast International Airport 17 6.21 9/7 29.38 EGAA 211820Z 28017KT 9999 BKN011 OVC016 09/07 Q0995
TNM SCRM Isla Rey Jorge, AQ Teniente Rodolfo Marsh Martin Base 29 0.31 -1/-1 29.38 SCRM 211800Z 34029KT 0500 BLSN BKN002 OVC007 M01/M01 Q0995 NOSIG

High pressure

Station
 
Location
 
Name
 
Wind
Knots
Gust
Knots
Vis
SM
Temp/Dew
C
Baro
inHg
METAR
 
KAL PAKV Kaltag, US Kaltag Airport 3 10 -10/-11 30.75 PAKV 211753Z AUTO 24003KT 10SM CLR M10/M12 A3075 RMK AO2 SLP417 I1000 I6000 T11001117 11067 21111 53001 TSNO $
FBK PAFB Fairbanks/Ft Wainwright, US Ladd AAF Airfield 1 8 -5/-6 30.74 PAFB 211758Z VRB01KT 8SM SCT012 OVC015 M05/M06 A3074 RMK AO2A SLP422 WND DATA ESTMD ALSTG/SLP ESTMD T10511065 52006 $
YDA CYDA Dawson City, CA Dawson City Airport 2 20 -21/-23 30.74 CYDA 211800Z CCA VRB02KT 20SM FEW010 SCT085 M21/M23 A3074 RMK ST2AC2 FROIN SLP456
TAL PATA Tanana, US Ralph M Calhoun Memorial Airport 0 10 -6/-7 30.73 PATA 211752Z 00000KT 10SM OVC017 M06/M08 A3073 RMK AO2 SLP414 4/002 933002 T10611078 11039 21067 52003 $
EAA PAEG Eagle, US Eagle Airport 0 10 -18/-21 30.73 PAEG 211753Z AUTO 00000KT 10SM OVC007 M19/M21 A3073 RMK AO2 SLP431 I1000 I6000 T11891211 11189 21222 53008 TSNO

Station
 
Location
 
Name
 
Wind
Knots
Gust
Knots
Vis
SM
Temp/Dew
C
Baro
inHg
METAR
 
FAI PAFA Fairbanks, US Fairbanks International Airport 0 2.5 -4/-6 30.73 PAFA 211753Z 00000KT 2 1/2SM -FZDZSN BR BKN005 BKN011 OVC060 M04/M06 A3073 RMK AO2 SLP417 P0000 60000 I1000 I6000 T10441061 11044 21050 53004
MCG PAMC McGrath, US McGrath Airport 0 10 -7/-7 30.72 PAMC 211753Z AUTO 00000KT 10SM FEW003 OVC019 M07/M08 A3072 RMK AO2 SLP410 I6002 T10721078 11033 21072 53002 TSNO $
EIL PAEI Fairbanks, US Eielson Air Force Base 0 5 -4/-6 30.72 PAEI 211756Z 00000KT 5SM BR SCT008 OVC012 M05/M06 A3072 RMK AO2A CIG 008V010 SLP416 P0000 60000 4/003 T10481062 11047 21052 53004 $
GAL PAGA Galena, US Edward G. Pitka Sr Airport 4 10 -4/-5 30.72 PAGA 211756Z AUTO 12004KT 10SM OVC031 M04/M05 A3072 RMK AO2 SLP407 T10441050 11044 21089 58002 FZRANO
UNK PAUN Unalakleet, US Unalakleet Airport 7 10 -3/-4 30.72 PAUN 211756Z AUTO 08007KT 10SM FEW002 M04/M04 A3072 RMK AO2 SLP406 T10391044 11039 21050 58005 FZRANO
FYU PFYU Fort Yukon, US Fort Yukon Airport 0 6 -8/-9 30.72 PFYU 211756Z 00000KT 6SM BR OVC013 M08/M09 A3072 RMK AO2 SNE54 SLP423 P0000 60000 T10831094 11083 21089 51004
ABL PAFM Ambler, US Ambler Airport 6 1.25 -3/-4 30.72 PAFM 211822Z AUTO 04006KT 1 1/4SM -SN BR FEW010 OVC015 M03/M04 A3072 RMK AO2 P0000 FZRANO
BTT PABT Bettles, US Bettles Airport 3 10 -7/-9 30.71 PABT 211753Z 01003KT 10SM SCT006 OVC015 M08/M09 A3071 RMK AO2 SLP418 4/001 I6000 T10781094 11061 21078 53005
SKK PFSH Shaktoolik, US Shaktoolik Airport 10 10 1/ 30.71 PFSH 211756Z AUTO 18010KT 10SM CLR 01/ A3071 RMK AO2 SLP401 T0011 10022 20000 58001 FZRANO
HSL PAHL Huslia, US Huslia Airport 0 10 -7/-8 30.71 PAHL 211807Z AUTO 00000KT 10SM BKN025 OVC055 M07/M08 A3071 RMK AO2 FZRANO
SHG PAGH Shungnak, US Shungnak Airport 9 4 -4/-4 30.71 PAGH 211825Z AUTO 11009KT 4SM -SN BR BKN018 BKN028 OVC042 M04/M04 A3071 RMK AO2 P0000 FZRANO
ENN PANN Nenana, US Nenana Municipal Airport 4 10 -3/-5 30.70 PANN 211753Z AUTO 07004KT 10SM OVC008 M03/M05 A3070 RMK AO2 SLP409 60000 T10331050 11033 21039 51004 TSNO
TLJ PATL Takotna, US Tatalina LRRS Airport 2 8 -3/-3 30.70 PATL 211755Z AUTO VRB02KT 8SM BKN012 M04/M04 A3070 RMK AO2 SLP417 T10371038 11006 21021 54001
GLV PAGL Golovin, US Golovin Airport 3 10 2/1 30.70 PAGL 211756Z AUTO 13003KT 10SM OVC033 02/02 A3070 RMK AO2 SLP392 T00220017 10028 20017 52003 FZRANO
LMA PAMH Minchumina, US Minchumina Airport 0 10 -2/-4 30.70 PAMH 211756Z AUTO 00000KT 10SM OVC017 M02/M04 A3070 RMK AO2 SLP402 T10221044 11022 21033 53002 FZRANO
SMK PAMK St Michael, US St Michael Airport 3 10 -2/-3 30.70 PAMK 211756Z AUTO 10003KT 10SM CLR M02/M03 A3070 RMK AO2 SLP397 6//// T10221033 10006 21028 58005 FZRANO PNO $
BIG PABI Delta Junction Ft Greely, US Allen Army Airfield 4 9 -6/-7 30.70 PABI 211816Z 11004KT 9SM -SN BKN016 OVC036 M06/M08 A3070 RMK AO2 PCPN VRY LGT P0000 T10611078
WMO PAWM White Mountain, US White Mountain Airport 3 8 1/1 30.69 PAWM 211756Z AUTO 12003KT 8SM OVC007 02/02 A3069 RMK AO2 SLP396 6//// T00170017 10028 20017 50002 FZRANO PNO $
MLL PADM Marshall, US Marshall Don Hunter Sr Airport 5 10 -2/-3 30.69 PADM 211802Z AUTO 05005KT 10SM OVC006 M02/M03 A3069 RMK AO2 SLP398 T10221033 11022 21050 55011 FZRANO
YOC CYOC Old Crow, CA Old Crow Airport 10 25 -11/-13 30.69 CYOC 211824Z 27010KT 25SM -SG BKN012 BKN042 M11/M13 A3069 RMK ST6SC1 VIS NW 3 SF ASOCTD SLP421
WLK PASK Selawik, US Selawik Airport 8 3 -1/-2 30.68 PASK 211822Z AUTO 07008KT 3SM UP BR OVC003 M01/M02 A3068 RMK AO2 UPB17SNE17 P0000 FZRANO
IAN PAIK Kiana, US Bob Baker Memorial Airport 4 3 -2/-3 30.68 PAIK 211825Z AUTO 11004KT 3SM BR OVC005 M02/M03 A3068 RMK AO2 SNE21 CIG 003V007 P0000 FZRANO
ANV PANV Anvik, US Anvik Airport 6 10 -5/-5 30.67 PANV 211756Z AUTO 09006KT 10SM CLR M05/M06 A3067 RMK AO2 SLP520 T10501056 11033 21050 55001 FZRANO TSNO
YMA CYMA Mayo, CA Mayo Airport 2 20 -18/-20 30.67 CYMA 211800Z VRB02KT 20SM FEW004 FEW040 SCT120 BKN220 M18/M20 A3067 RMK ST1SC1AC2CI2 CLIMAT -18.0/-21.3/0.0 SLP448
BKC PABL Buckland, US Buckland Airport 7 10 1/0 30.66 PABL 211756Z AUTO 11007KT 10SM OVC040 01/00 A3066 RMK AO2 SLP384 60003 T00110000 10011 21011 51001 FZRANO
SCM PACM Scammon Bay, US Scammon Bay Airport 6 10 -2/-2 30.66 PACM 211756Z AUTO 09006KT 10SM CLR M03/M03 A3066 RMK AO2 SNB09E19 SLP377 6//// T10281028 10017 21028 56007 FZRANO PNO $
ZFM CZFM Fort Mcpherson, CA Fort Mcpherson Airport 2 35 -13/-15 30.66 CZFM 211800Z 15002KT 35SM FEW080 FEW210 M13/M15 A3066 RMK AC1CS1 S10.0MM SNWCVR/MUCH LOOSE SLP388
OME PAOM Nome, US Nome Airport 0 10 4/2 30.66 PAOM 211800Z 00000KT 10SM FEW015 BKN030 04/03 A3066 RMK AO2 T00440028 $
KTS PFKT Brevig Mission, US Brevig Mission Airport 9 0.5 4/3 30.66 PFKT 211815Z AUTO 23009KT 1/2SM -RA FG OVC003 04/03 A3066 RMK AO2 P0000
ORV PFNO Noorvik, US Robert (Bob) Curtis Memorial Airport 6 2 -1/-1 30.66 PFNO 211823Z AUTO 08006KT 2SM UP BR OVC007 M01/M01 A3066 RMK AO2 SNB13E23 CIG 003V008 P0000 FZRANO
ORT PAOR Northway, US Northway Airport 0 10 -11/-13 30.65 PAOR 211753Z 00000KT 10SM BKN006 OVC013 M11/M13 A3065 RMK AO2 SLP433 4/003 T11111133 11111 21167 53007
KKA PAKK Koyuk, US Koyuk Alfred Adams Airport 0 7 0/0 30.65 PAKK 211756Z AUTO 00000KT 7SM OVC006 00/00 A3065 RMK AO2 SLP390 T00000000 10006 21011 53002 FZRANO
KSM PASM St Mary's, US St Mary's Airport 6 10 -4/-5 30.65 PASM 211756Z AUTO 03006KT 10SM CLR M04/M05 A3065 RMK AO2 SLP390 T10441050 11022 21056 56012 FZRANO
LAK CYKD Aklavik, CA Aklavik/Freddie Carmichael Airport 2 15 -10/-11 30.65 CYKD 211800Z VRB02KT 15SM FEW140 BKN240 M10/M11 A3065 RMK AC2CI4 SLP381
RSH PARS Russian Mission, US Russian Mission Airport 6 2.5 -1/-2 30.65 PARS 211810Z AUTO 07006KT 2 1/2SM -SN BR OVC007 M01/M02 A3065 RMK AO2 VIS 1 1/4V4 SNB10 P0000 FZRANO $
ANI PANI Aniak, US Aniak Airport 5 10 -2/-2 30.65 PANI 211815Z 10005KT 10SM -SN OVC006 M02/M02 A3065 RMK AUTO CIG004V008 NOSPECI
MOU PAMO Mountain Village, US Mountain Village Airport 14 10 -4/-5 30.64 PAMO 211802Z AUTO 06014KT 10SM CLR M04/M05 A3064 RMK AO2 SLP384 T10441050 11017 21044 56010 FZRANO
UTO PAIM Utopia Creek, US Indian Mountain LRRS Airport 0 10 -8/-8 30.64 PAIM 211812Z AUTO 00000KT 10SM SCT005 BKN029 M08/M08 A3064 RMK AO2 SLP409
MCL PAIN McKinley Park, US McKinley National Park Airport 3 10 -6/-7 30.63 PAIN 211756Z AUTO 26003KT 10SM OVC033 M07/M08 A3063 RMK AO2 SLP413 60000 T10671078 11028 21067 51003 FZRANO
YEV CYEV Inuvik, CA Inuvik Mike Zubko Airport 0 15 -8/-10 30.63 CYEV 211800Z 00000KT 15SM FEW010 FEW060 BKN120 BKN230 M08/M10 A3063 RMK ST1SC1AC3CI1 SLP383
YGH CYGH Fort Good Hope, CA Fort Good Hope Airport 10 5 -6/-8 30.63 CYGH 211800Z 27010KT 5SM -SN SCT013 SCT028 OVC036 M06/M08 A3063 RMK SN2SC1SC1SC4 SLP384
YXQ CYXQ Beaver Creek, CA Beaver Creek Airport 4 30 -15/-17 30.63 CYXQ 211800Z 17004KT 30SM -SN FEW015 BKN025 OVC120 M15/M17 A3063 RMK ST2SC5AC1 /PCPN VRY LGT/ SLP434
TLA PATE Teller, US Teller Airport 11 0.25 4/3 30.63 PATE 211812Z AUTO 22011KT 1/4SM FG OVC002 04/03 A3063 RMK AO2 VIS M1/4V4
TNC PATC Tin City, US Tin City Long Range Radar Station Airport 10 6 2/2 30.62 PATC 211755Z AUTO 22010KT 6SM BKN002 03/03 A3062 RMK AO2 SHRAB1655E1755 SLP371 T00290029 10044 20033 53009
HPB PAHP Hooper Bay, US Hooper Bay Airport 10 10 -2/-2 30.62 PAHP 211756Z AUTO 07010KT 10SM CLR M02/M03 A3062 RMK AO2 SLP367 T10221028 10017 21022 56008 FZRANO $